Time;durP1;ratioP1;P1;durP2;ratioP2;P2;SDS_P1;SDS_P2;PMS_P1;PMS_P2;Temp;Humidity;BMP_temperature;BMP_pressure;BME280_temperature;BME280_humidity;BME280_pressure;Samples;Min_cycle;Max_cycle;Signal;HPM_P1;HPM_P2
2023/06/06 00:00:11;;;;;;;;;;;;;;;;;;5026537;28;3107;-59
2023/06/06 00:02:42;;;;;;;;;;;;;;;;;;5025074;28;4640;-60
2023/06/06 00:05:08;;;;;;;;;;;;;;;;;;5022982;28;5033;-59
2023/06/06 00:07:35;;;;;;;;;;;;;;;;;;5024485;28;4555;-59
2023/06/06 00:10:01;;;;;;;;;;;;;;;;;;5024151;28;4494;-60
2023/06/06 00:12:28;;;;;;;;;;;;;;;;;;5024921;28;3157;-60
2023/06/06 00:14:54;;;;;;;;;;;;;;;;;;5023714;28;4632;-60
2023/06/06 00:17:20;;;;;;;;;;;;;;;;;;5022034;28;4625;-60
2023/06/06 00:19:47;;;;;;;;;;;;;;;;;;5024045;28;5182;-60
2023/06/06 00:22:12;;;;;;;;;;;;;;;;;;5022772;28;4503;-59
2023/06/06 00:24:37;;;;;;;;;;;;;;;;;;5023953;28;4544;-60
2023/06/06 00:27:03;;;;;;;;;;;;;;;;;;5025930;28;3229;-60
2023/06/06 00:29:28;;;;;;;;;;;;;;;;;;5022020;28;4589;-61
2023/06/06 00:31:53;;;;;;;;;;;;;;;;;;5023515;28;4497;-60
2023/06/06 00:34:18;;;;;;;;;;;;;;;;;;5022475;28;4755;-60
2023/06/06 00:36:44;;;;;;;;;;;;;;;;;;5024458;28;4546;-60
2023/06/06 00:39:09;;;;;;;;;;;;;;;;;;5022110;28;3322;-59
2023/06/06 00:41:34;;;;;;;;;;;;;;;;;;5026676;28;4515;-60
2023/06/06 00:43:59;;;;;;;;;;;;;;;;;;5023907;28;4825;-60
2023/06/06 00:46:25;;;;;;;;;;;;;;;;;;5025095;28;4534;-59
2023/06/06 00:48:51;;;;;;;;;;;;;;;;;;5022700;28;4547;-60
2023/06/06 00:51:16;;;;;;;;;;;;;;;;;;5023509;28;3596;-60
2023/06/06 00:53:42;;;;;;;;;;;;;;;;;;5021674;28;4646;-60
2023/06/06 00:56:07;;;;;;;;;;;;;;;;;;5022031;28;4772;-60
2023/06/06 00:58:33;;;;;;;;;;;;;;;;;;5023623;28;4470;-59
2023/06/06 01:00:58;;;;;;;;;;;;;;;;;;5024891;28;4436;-59
2023/06/06 01:03:24;;;;;;;;;;;;;;;;;;5022292;28;3580;-60
2023/06/06 01:05:53;;;;;;;;;;;;;;;;;;5013811;28;4770;-60
2023/06/06 01:08:19;;;;;;;;;;;;;;;;;;5024981;28;4640;-60
2023/06/06 01:10:45;;;;;;;;;;;;;;;;;;5018681;28;4618;-59
2023/06/06 01:13:11;;;;;;;;;;;;;;;;;;5023558;28;4655;-59
2023/06/06 01:16:03;;;;;;;;;;;;;;;;;;5023537;28;4543;-60
2023/06/06 01:18:29;;;;;;;;;;;;;;;;;;5026469;28;4880;-59
2023/06/06 01:20:55;;;;;;;;;;;;;;;;;;5053277;28;4457;-60
2023/06/06 01:23:20;;;;;;;;;;;;;;;;;;5055231;28;4822;-60
2023/06/06 01:25:48;;;;;;;;;;;;;;;;;;5026568;28;4546;-61
2023/06/06 01:28:15;;;;;;;;;;;;;;;;;;5027125;28;4602;-61
2023/06/06 01:30:41;;;;;;;;;;;;;;;;;;5025161;28;4685;-59
2023/06/06 01:33:16;;;;;;;;;;;;;;;;;;5029592;28;3358;-60
2023/06/06 01:35:53;;;;;;;;;;;;;;;;;;5026095;28;5037;-60
2023/06/06 01:38:39;;;;;;;;;;;;;;;;;;5044362;28;4812;-60
2023/06/06 01:41:04;;;;;;;;;;;;;;;;;;5026698;28;4473;-60
2023/06/06 01:43:30;;;;;;;;;;;;;;;;;;5055212;28;4682;-60
2023/06/06 01:45:55;;;;;;;;;;;;;;;;;;5017816;28;4541;-60
2023/06/06 01:48:20;;;;;;;;;;;;;;;;;;5038567;28;4255;-60
2023/06/06 01:50:46;;;;;;;;;;;;;;;;;;5049612;28;4614;-60
2023/06/06 01:53:11;;;;;;;;;;;;;;;;;;5024978;28;4625;-60
2023/06/06 01:55:36;;;;;;;;;;;;;;;;;;5025481;28;4779;-61
2023/06/06 01:58:03;;;;;;;;;;;;;;;;;;5024955;28;4490;-60
2023/06/06 02:00:28;;;;;;;;;;;;;;;;;;5030135;28;3578;-61
2023/06/06 02:02:53;;;;;;;;;;;;;;;;;;5026441;28;4415;-60
2023/06/06 02:05:20;;;;;;;;;;;;;;;;;;5026415;28;4469;-59
2023/06/06 02:07:46;;;;;;;;;;;;;;;;;;5040092;28;4507;-60
2023/06/06 02:10:11;;;;;;;;;;;;;;;;;;5027704;28;4856;-60
2023/06/06 02:12:37;;;;;;;;;;;;;;;;;;5024663;28;5069;-60
2023/06/06 02:15:02;;;;;;;;;;;;;;;;;;5026519;28;3245;-60
2023/06/06 02:17:28;;;;;;;;;;;;;;;;;;5027042;28;4998;-60
2023/06/06 02:19:53;;;;;;;;;;;;;;;;;;5023340;28;4955;-60
2023/06/06 02:22:18;;;;;;;;;;;;;;;;;;5025876;28;4886;-60
2023/06/06 02:24:44;;;;;;;;;;;;;;;;;;5043330;28;4566;-60
2023/06/06 02:27:09;;;;;;;;;;;;;;;;;;5029061;28;3294;-60
2023/06/06 02:29:35;;;;;;;;;;;;;;;;;;5023564;28;4652;-61
2023/06/06 02:32:01;;;;;;;;;;;;;;;;;;5027085;28;4638;-60
2023/06/06 02:34:26;;;;;;;;;;;;;;;;;;5024237;28;4712;-61
2023/06/06 02:36:53;;;;;;;;;;;;;;;;;;5026350;28;4517;-61
2023/06/06 02:39:18;;;;;;;;;;;;;;;;;;5029373;28;3660;-60
2023/06/06 02:41:43;;;;;;;;;;;;;;;;;;5027722;28;4677;-59
2023/06/06 02:44:09;;;;;;;;;;;;;;;;;;5025969;28;4575;-60
2023/06/06 02:46:34;;;;;;;;;;;;;;;;;;5027325;28;4494;-60
2023/06/06 02:48:59;;;;;;;;;;;;;;;;;;5027011;28;5031;-61
2023/06/06 02:51:27;;;;;;;;;;;;;;;;;;5025554;28;3220;-60
2023/06/06 02:53:52;;;;;;;;;;;;;;;;;;5023196;28;5010;-60
2023/06/06 02:56:17;;;;;;;;;;;;;;;;;;5024319;28;4508;-61
2023/06/06 02:58:43;;;;;;;;;;;;;;;;;;5026434;28;4444;-61
2023/06/06 03:01:09;;;;;;;;;;;;;;;;;;5026844;28;4623;-61
2023/06/06 03:03:34;;;;;;;;;;;;;;;;;;5025684;28;4665;-61
2023/06/06 03:06:00;;;;;;;;;;;;;;;;;;5042510;28;3495;-60
2023/06/06 03:08:26;;;;;;;;;;;;;;;;;;5023281;28;4906;-60
2023/06/06 03:10:52;;;;;;;;;;;;;;;;;;5022343;28;4701;-60
2023/06/06 03:13:17;;;;;;;;;;;;;;;;;;5024683;28;4775;-60
2023/06/06 03:15:44;;;;;;;;;;;;;;;;;;5026605;28;4971;-60
2023/06/06 03:18:20;;;;;;;;;;;;;;;;;;5022671;28;4622;-61
2023/06/06 03:20:45;;;;;;;;;;;;;;;;;;5024370;28;4492;-60
2023/06/06 03:23:11;;;;;;;;;;;;;;;;;;5025232;28;4692;-60
2023/06/06 03:25:37;;;;;;;;;;;;;;;;;;5038934;28;4517;-60
2023/06/06 03:28:02;;;;;;;;;;;;;;;;;;5023063;28;4577;-59
2023/06/06 03:30:27;;;;;;;;;;;;;;;;;;5016962;28;3468;-60
2023/06/06 03:32:52;;;;;;;;;;;;;;;;;;5021389;28;5587;-59
2023/06/06 03:35:18;;;;;;;;;;;;;;;;;;5025331;28;4480;-61
2023/06/06 03:37:43;;;;;;;;;;;;;;;;;;5056505;28;4525;-59
2023/06/06 03:40:09;;;;;;;;;;;;;;;;;;5019594;28;4558;-61
2023/06/06 03:42:34;;;;;;;;;;;;;;;;;;5025307;28;4667;-60
2023/06/06 03:44:59;;;;;;;;;;;;;;;;;;5023813;28;3457;-60
2023/06/06 03:47:25;;;;;;;;;;;;;;;;;;5024874;28;4437;-59
2023/06/06 03:49:50;;;;;;;;;;;;;;;;;;5040179;28;4687;-59
2023/06/06 03:52:15;;;;;;;;;;;;;;;;;;5020322;28;5141;-60
2023/06/06 03:54:41;;;;;;;;;;;;;;;;;;5023710;28;4688;-60
2023/06/06 03:57:08;;;;;;;;;;;;;;;;;;5026873;28;3736;-59
2023/06/06 03:59:33;;;;;;;;;;;;;;;;;;5023958;28;4619;-60
2023/06/06 04:01:58;;;;;;;;;;;;;;;;;;5020255;28;4843;-60
2023/06/06 04:04:25;;;;;;;;;;;;;;;;;;5024419;28;5090;-61
2023/06/06 04:06:50;;;;;;;;;;;;;;;;;;5023509;28;5072;-60
2023/06/06 04:09:16;;;;;;;;;;;;;;;;;;5027584;28;1106;-60
2023/06/06 04:11:41;;;;;;;;;;;;;;;;;;5022802;28;4428;-61
2023/06/06 04:14:07;;;;;;;;;;;;;;;;;;5021695;28;4709;-60
2023/06/06 04:16:32;;;;;;;;;;;;;;;;;;5024331;28;4707;-61
2023/06/06 04:18:57;;;;;;;;;;;;;;;;;;5022383;28;4730;-60
2023/06/06 04:21:22;;;;;;;;;;;;;;;;;;5026425;28;3170;-60
2023/06/06 04:23:48;;;;;;;;;;;;;;;;;;5023443;28;4526;-60
2023/06/06 04:26:26;;;;;;;;;;;;;;;;;;5020430;28;4506;-60
2023/06/06 04:28:58;;;;;;;;;;;;;;;;;;5020433;28;5325;-60
2023/06/06 04:31:24;;;;;;;;;;;;;;;;;;5029942;28;4888;-61
2023/06/06 04:33:53;;;;;;;;;;;;;;;;;;5025659;28;5070;-61
2023/06/06 04:36:19;;;;;;;;;;;;;;;;;;5016876;28;3636;-61
2023/06/06 04:38:46;;;;;;;;;;;;;;;;;;5019804;28;5207;-60
2023/06/06 04:41:12;;;;;;;;;;;;;;;;;;5020666;28;5026;-61
2023/06/06 04:43:38;;;;;;;;;;;;;;;;;;5016555;28;4930;-60
2023/06/06 04:46:04;;;;;;;;;;;;;;;;;;5024315;28;4518;-61
2023/06/06 04:48:29;;;;;;;;;;;;;;;;;;5024156;28;3810;-60
2023/06/06 04:50:55;;;;;;;;;;;;;;;;;;5023123;28;4974;-59
2023/06/06 04:53:21;;;;;;;;;;;;;;;;;;5038617;28;4534;-59
2023/06/06 04:55:47;;;;;;;;;;;;;;;;;;5022448;28;4734;-59
2023/06/06 04:58:14;;;;;;;;;;;;;;;;;;5025371;28;5061;-59
2023/06/06 05:00:42;;;;;;;;;;;;;;;;;;5029012;28;5119;-59
2023/06/06 05:03:07;;;;;;;;;;;;;;;;;;5029953;28;1093;-59
2023/06/06 05:05:32;;;;;;;;;;;;;;;;;;5029402;28;4429;-60
2023/06/06 05:07:57;;;;;;;;;;;;;;;;;;5029065;28;5165;-59
2023/06/06 05:10:23;;;;;;;;;;;;;;;;;;5026114;28;5043;-59
2023/06/06 05:12:48;;;;;;;;;;;;;;;;;;5029959;28;4650;-59
2023/06/06 05:15:13;;;;;;;;;;;;;;;;;;5030835;28;1261;-59
2023/06/06 05:17:38;;;;;;;;;;;;;;;;;;5029520;28;4634;-59
2023/06/06 05:20:10;;;;;;;;;;;;;;;;;;5029704;28;4457;-60
2023/06/06 05:22:36;;;;;;;;;;;;;;;;;;5025358;28;4504;-58
2023/06/06 05:25:01;;;;;;;;;;;;;;;;;;5027586;28;4726;-60
2023/06/06 05:27:26;;;;;;;;;;;;;;;;;;5030198;28;1156;-59
2023/06/06 05:29:51;;;;;;;;;;;;;;;;;;5027827;28;4600;-59
2023/06/06 05:32:18;;;;;;;;;;;;;;;;;;5027878;28;4550;-60
2023/06/06 05:34:44;;;;;;;;;;;;;;;;;;5029750;28;5016;-60
2023/06/06 05:37:09;;;;;;;;;;;;;;;;;;5028907;28;4597;-58
2023/06/06 05:39:35;;;;;;;;;;;;;;;;;;5028505;28;4471;-57
2023/06/06 05:42:00;;;;;;;;;;;;;;;;;;5044121;28;3221;-59
2023/06/06 05:44:26;;;;;;;;;;;;;;;;;;5029247;28;4794;-59
2023/06/06 05:46:55;;;;;;;;;;;;;;;;;;5061301;28;4672;-59
2023/06/06 05:49:20;;;;;;;;;;;;;;;;;;5028126;28;5328;-58
2023/06/06 05:51:45;;;;;;;;;;;;;;;;;;5028352;28;4871;-59
2023/06/06 05:54:13;;;;;;;;;;;;;;;;;;5029483;28;3288;-59
2023/06/06 05:56:38;;;;;;;;;;;;;;;;;;5028747;28;4488;-60
2023/06/06 05:59:03;;;;;;;;;;;;;;;;;;5029694;28;4484;-60
2023/06/06 06:01:30;;;;;;;;;;;;;;;;;;5029464;28;4984;-60
2023/06/06 06:03:55;;;;;;;;;;;;;;;;;;5029223;28;4638;-59
2023/06/06 06:06:21;;;;;;;;;;;;;;;;;;5036048;28;1690;-60
2023/06/06 06:08:49;;;;;;;;;;;;;;;;;;5027824;28;4436;-59
2023/06/06 06:11:15;;;;;;;;;;;;;;;;;;5025475;28;4567;-58
2023/06/06 06:13:40;;;;;;;;;;;;;;;;;;5028826;28;4463;-59
2023/06/06 06:16:05;;;;;;;;;;;;;;;;;;5027336;28;4496;-59
2023/06/06 06:18:31;;;;;;;;;;;;;;;;;;5026675;28;4615;-58
2023/06/06 06:20:56;;;;;;;;;;;;;;;;;;5028618;28;3227;-60
2023/06/06 06:23:22;;;;;;;;;;;;;;;;;;5028868;28;4717;-60
2023/06/06 06:25:47;;;;;;;;;;;;;;;;;;5027082;28;5059;-60
2023/06/06 06:28:21;;;;;;;;;;;;;;;;;;5028337;28;4571;-60
2023/06/06 06:30:46;;;;;;;;;;;;;;;;;;5046477;28;4672;-60
2023/06/06 06:33:12;;;;;;;;;;;;;;;;;;5029128;28;1129;-60
2023/06/06 06:35:37;;;;;;;;;;;;;;;;;;5026018;28;4509;-59
2023/06/06 06:38:02;;;;;;;;;;;;;;;;;;5028372;28;4705;-59
2023/06/06 06:40:28;;;;;;;;;;;;;;;;;;5026843;28;5138;-59
2023/06/06 06:42:53;;;;;;;;;;;;;;;;;;5023952;28;4673;-59
2023/06/06 06:45:19;;;;;;;;;;;;;;;;;;5028708;28;3723;-59
2023/06/06 06:47:44;;;;;;;;;;;;;;;;;;5027869;28;5026;-59
2023/06/06 06:50:11;;;;;;;;;;;;;;;;;;5027305;28;4651;-58
2023/06/06 06:52:37;;;;;;;;;;;;;;;;;;5027856;28;4466;-60
2023/06/06 06:55:05;;;;;;;;;;;;;;;;;;5027216;28;5055;-60
2023/06/06 06:57:32;;;;;;;;;;;;;;;;;;5028508;28;4627;-57
2023/06/06 07:00:00;;;;;;;;;;;;;;;;;;5028543;28;1138;-59
2023/06/06 07:02:28;;;;;;;;;;;;;;;;;;5025485;28;4790;-59
2023/06/06 07:04:54;;;;;;;;;;;;;;;;;;5025856;28;4612;-59
2023/06/06 07:07:20;;;;;;;;;;;;;;;;;;5025496;28;4723;-59
2023/06/06 07:09:45;;;;;;;;;;;;;;;;;;5025504;28;4669;-59
2023/06/06 07:12:10;;;;;;;;;;;;;;;;;;5020093;28;3540;-62
2023/06/06 07:14:36;;;;;;;;;;;;;;;;;;5026398;28;5098;-62
2023/06/06 07:17:01;;;;;;;;;;;;;;;;;;5027538;28;4549;-62
2023/06/06 07:19:26;;;;;;;;;;;;;;;;;;5027428;28;4793;-63
2023/06/06 07:21:52;;;;;;;;;;;;;;;;;;5042143;28;4660;-62
2023/06/06 07:24:17;;;;;;;;;;;;;;;;;;5026701;28;3031;-63
2023/06/06 07:26:44;;;;;;;;;;;;;;;;;;5027396;28;4593;-63
2023/06/06 07:29:09;;;;;;;;;;;;;;;;;;5025154;28;5058;-62
2023/06/06 07:31:34;;;;;;;;;;;;;;;;;;5024115;28;4595;-62
2023/06/06 07:34:00;;;;;;;;;;;;;;;;;;5025757;28;4939;-62
2023/06/06 07:36:25;;;;;;;;;;;;;;;;;;5026684;28;3521;-63
2023/06/06 07:38:54;;;;;;;;;;;;;;;;;;5026519;28;4668;-63
2023/06/06 07:41:20;;;;;;;;;;;;;;;;;;5027170;28;4504;-63
2023/06/06 07:43:45;;;;;;;;;;;;;;;;;;5026296;28;4656;-63
2023/06/06 07:46:11;;;;;;;;;;;;;;;;;;5026313;28;5006;-63
2023/06/06 07:48:36;;;;;;;;;;;;;;;;;;5024142;28;4540;-62
2023/06/06 07:51:02;;;;;;;;;;;;;;;;;;5027565;28;3132;-63
2023/06/06 07:53:28;;;;;;;;;;;;;;;;;;5023041;28;4985;-63
2023/06/06 07:55:53;;;;;;;;;;;;;;;;;;5029521;28;4435;-62
2023/06/06 07:58:25;;;;;;;;;;;;;;;;;;5027869;28;5630;-62
2023/06/06 08:00:50;;;;;;;;;;;;;;;;;;5042959;28;4746;-62
2023/06/06 08:03:16;;;;;;;;;;;;;;;;;;5025660;28;3222;-62
2023/06/06 08:05:41;;;;;;;;;;;;;;;;;;5060800;28;4483;-62
2023/06/06 08:08:06;;;;;;;;;;;;;;;;;;5024029;28;4670;-63
2023/06/06 08:10:32;;;;;;;;;;;;;;;;;;5025056;28;4453;-63
2023/06/06 08:12:57;;;;;;;;;;;;;;;;;;5025770;28;4488;-62
2023/06/06 08:15:23;;;;;;;;;;;;;;;;;;5059046;28;1357;-63
2023/06/06 08:17:48;;;;;;;;;;;;;;;;;;5027673;28;4713;-62
2023/06/06 08:20:13;;;;;;;;;;;;;;;;;;5028204;28;5257;-61
2023/06/06 08:22:46;;;;;;;;;;;;;;;;;;5026110;28;5208;-63
2023/06/06 08:25:12;;;;;;;;;;;;;;;;;;5024546;28;4770;-62
2023/06/06 08:27:38;;;;;;;;;;;;;;;;;;5023942;28;4817;-62
2023/06/06 08:30:10;;;;;;;;;;;;;;;;;;5025503;28;3144;-64
2023/06/06 08:32:37;;;;;;;;;;;;;;;;;;5025582;28;4595;-62
2023/06/06 08:35:03;;;;;;;;;;;;;;;;;;5039179;28;5128;-63
2023/06/06 08:37:28;;;;;;;;;;;;;;;;;;5024225;28;5093;-63
2023/06/06 08:39:53;;;;;;;;;;;;;;;;;;5028931;28;4492;-63
2023/06/06 08:42:20;;;;;;;;;;;;;;;;;;5029633;28;3315;-62
2023/06/06 08:44:46;;;;;;;;;;;;;;;;;;5030500;28;4384;-62
2023/06/06 08:47:18;;;;;;;;;;;;;;;;;;5037500;28;4565;-65
2023/06/06 08:49:46;;;;;;;;;;;;;;;;;;5024108;28;4645;-63
2023/06/06 08:52:11;;;;;;;;;;;;;;;;;;5032853;28;4620;-64
2023/06/06 08:54:37;;;;;;;;;;;;;;;;;;5033087;28;5071;-65
2023/06/06 08:57:22;;;;;;;;;;;;;;;;;;5038300;28;3209;-64
2023/06/06 08:59:48;;;;;;;;;;;;;;;;;;5019645;28;4584;-64
2023/06/06 09:02:13;;;;;;;;;;;;;;;;;;5028643;28;4468;-64
2023/06/06 09:04:38;;;;;;;;;;;;;;;;;;5028920;28;4517;-64
2023/06/06 09:07:04;;;;;;;;;;;;;;;;;;5030348;28;4725;-65
2023/06/06 09:09:33;;;;;;;;;;;;;;;;;;5029401;28;3525;-64
2023/06/06 09:11:59;;;;;;;;;;;;;;;;;;5023234;28;4957;-63
2023/06/06 09:14:24;;;;;;;;;;;;;;;;;;5028979;28;4461;-62
2023/06/06 09:16:52;;;;;;;;;;;;;;;;;;5028545;28;4473;-65
2023/06/06 09:19:28;;;;;;;;;;;;;;;;;;5028642;28;4936;-65
2023/06/06 09:21:54;;;;;;;;;;;;;;;;;;5028436;28;4485;-64
2023/06/06 09:24:19;;;;;;;;;;;;;;;;;;5059951;28;3175;-64
2023/06/06 09:26:45;;;;;;;;;;;;;;;;;;5028759;28;4443;-62
2023/06/06 09:29:11;;;;;;;;;;;;;;;;;;5028982;28;4461;-65
2023/06/06 09:31:41;;;;;;;;;;;;;;;;;;5029011;28;5312;-64
2023/06/06 09:34:08;;;;;;;;;;;;;;;;;;5029226;28;4462;-64
2023/06/06 09:36:35;;;;;;;;;;;;;;;;;;5029165;28;4572;-63
2023/06/06 09:39:34;;;;;;;;;;;;;;;;;;5056846;28;2008;-64
2023/06/06 09:41:59;;;;;;;;;;;;;;;;;;5011215;28;5056;-64
2023/06/06 09:44:25;;;;;;;;;;;;;;;;;;5061064;28;4651;-64
2023/06/06 09:46:56;;;;;;;;;;;;;;;;;;5027663;28;4564;-64
2023/06/06 09:49:22;;;;;;;;;;;;;;;;;;5026646;28;4528;-64
2023/06/06 09:51:47;;;;;;;;;;;;;;;;;;5027785;28;5056;-65
2023/06/06 09:54:12;;;;;;;;;;;;;;;;;;5028150;28;3595;-65
2023/06/06 09:56:39;;;;;;;;;;;;;;;;;;5028304;28;4644;-64
2023/06/06 09:59:05;;;;;;;;;;;;;;;;;;5048833;28;4629;-66
2023/06/06 10:01:31;;;;;;;;;;;;;;;;;;5028223;28;4451;-65
2023/06/06 10:03:59;;;;;;;;;;;;;;;;;;5028946;28;4658;-65
2023/06/06 10:06:46;;;;;;;;;;;;;;;;;;5043443;28;3615;-64
2023/06/06 10:09:11;;;;;;;;;;;;;;;;;;5020679;28;5944;-63
2023/06/06 10:11:50;;;;;;;;;;;;;;;;;;5026377;28;4692;-64
2023/06/06 10:14:21;;;;;;;;;;;;;;;;;;5027998;28;4452;-63
2023/06/06 10:16:46;;;;;;;;;;;;;;;;;;5032341;28;5331;-64
2023/06/06 10:19:21;;;;;;;;;;;;;;;;;;5026381;28;4724;-64
2023/06/06 10:21:46;;;;;;;;;;;;;;;;;;5026360;28;4485;-64
2023/06/06 10:24:11;;;;;;;;;;;;;;;;;;5042395;28;3178;-64
2023/06/06 10:26:46;;;;;;;;;;;;;;;;;;5024621;28;4859;-65
2023/06/06 10:29:13;;;;;;;;;;;;;;;;;;5049238;28;4552;-64
2023/06/06 10:31:45;;;;;;;;;;;;;;;;;;5026235;28;4578;-64
2023/06/06 10:34:13;;;;;;;;;;;;;;;;;;5046132;28;4461;-63
2023/06/06 10:36:40;;;;;;;;;;;;;;;;;;5042364;28;4546;-65
2023/06/06 10:39:18;;;;;;;;;;;;;;;;;;5027176;28;3430;-63
2023/06/06 10:41:50;;;;;;;;;;;;;;;;;;5026180;28;5844;-64
2023/06/06 10:44:18;;;;;;;;;;;;;;;;;;5027561;28;4690;-64
2023/06/06 10:46:47;;;;;;;;;;;;;;;;;;5036079;28;4487;-65
2023/06/06 10:49:13;;;;;;;;;;;;;;;;;;5058286;28;4607;-65
2023/06/06 10:51:39;;;;;;;;;;;;;;;;;;5026796;28;4677;-66
2023/06/06 10:54:20;;;;;;;;;;;;;;;;;;5027760;28;3480;-64
2023/06/06 10:56:59;;;;;;;;;;;;;;;;;;5047993;28;5069;-66
2023/06/06 10:59:50;;;;;;;;;;;;;;;;;;5028363;28;4605;-63
2023/06/06 11:02:38;;;;;;;;;;;;;;;;;;5044071;28;4539;-64
2023/06/06 11:05:04;;;;;;;;;;;;;;;;;;5027399;28;4439;-64
2023/06/06 11:07:31;;;;;;;;;;;;;;;;;;5026085;28;4489;-63
2023/06/06 11:09:56;;;;;;;;;;;;;;;;;;5041926;28;5143;-65
2023/06/06 11:12:23;;;;;;;;;;;;;;;;;;5023894;28;1914;-64
2023/06/06 11:15:10;;;;;;;;;;;;;;;;;;5025583;28;5018;-64
2023/06/06 11:18:07;;;;;;;;;;;;;;;;;;5026764;28;4926;-64
2023/06/06 11:20:41;;;;;;;;;;;;;;;;;;5026901;28;4516;-64
2023/06/06 11:23:08;;;;;;;;;;;;;;;;;;5039129;28;5291;-65
2023/06/06 11:25:37;;;;;;;;;;;;;;;;;;5025166;28;4465;-65
2023/06/06 11:28:02;;;;;;;;;;;;;;;;;;5026472;28;4507;-64
2023/06/06 11:30:31;;;;;;;;;;;;;;;;;;5025130;28;1930;-64
2023/06/06 11:32:57;;;;;;;;;;;;;;;;;;5025497;28;5101;-65
2023/06/06 11:35:23;;;;;;;;;;;;;;;;;;5025203;28;4853;-65
2023/06/06 11:37:49;;;;;;;;;;;;;;;;;;5024106;28;4477;-66
2023/06/06 11:40:14;;;;;;;;;;;;;;;;;;5019929;28;4704;-67
2023/06/06 11:42:43;;;;;;;;;;;;;;;;;;5025998;28;5158;-63
2023/06/06 11:45:15;;;;;;;;;;;;;;;;;;5024738;28;3402;-65
2023/06/06 11:47:40;;;;;;;;;;;;;;;;;;5025157;28;4960;-64
2023/06/06 11:50:08;;;;;;;;;;;;;;;;;;5026051;28;4924;-63
2023/06/06 11:52:43;;;;;;;;;;;;;;;;;;5025460;28;4665;-62
2023/06/06 11:55:08;;;;;;;;;;;;;;;;;;5023775;28;4504;-63
2023/06/06 11:57:34;;;;;;;;;;;;;;;;;;5031753;28;4496;-63
2023/06/06 12:00:07;;;;;;;;;;;;;;;;;;5024673;28;3157;-64
2023/06/06 12:02:32;;;;;;;;;;;;;;;;;;5022319;28;4645;-64
2023/06/06 12:04:58;;;;;;;;;;;;;;;;;;5024867;28;5163;-64
2023/06/06 12:07:23;;;;;;;;;;;;;;;;;;5024280;28;4470;-62
2023/06/06 12:10:01;;;;;;;;;;;;;;;;;;5021622;28;4692;-64
2023/06/06 12:12:26;;;;;;;;;;;;;;;;;;5023745;28;1919;-64
2023/06/06 12:14:55;;;;;;;;;;;;;;;;;;5025040;28;4469;-63
2023/06/06 12:17:20;;;;;;;;;;;;;;;;;;5024782;28;5072;-64
2023/06/06 12:19:45;;;;;;;;;;;;;;;;;;5056464;28;5312;-63
2023/06/06 12:22:12;;;;;;;;;;;;;;;;;;5040470;28;4482;-63
2023/06/06 12:24:37;;;;;;;;;;;;;;;;;;5025242;28;5058;-63
2023/06/06 12:27:03;;;;;;;;;;;;;;;;;;5027021;28;1333;-64
2023/06/06 12:29:30;;;;;;;;;;;;;;;;;;5024986;28;4463;-63
2023/06/06 12:32:15;;;;;;;;;;;;;;;;;;5029900;28;4501;-64
2023/06/06 12:34:50;;;;;;;;;;;;;;;;;;5019372;28;4595;-63
2023/06/06 12:37:16;;;;;;;;;;;;;;;;;;5024593;28;4463;-63
2023/06/06 12:39:42;;;;;;;;;;;;;;;;;;5024652;28;4584;-63
2023/06/06 12:42:11;;;;;;;;;;;;;;;;;;5026307;28;1409;-63
2023/06/06 12:44:36;;;;;;;;;;;;;;;;;;5023111;28;4659;-63
2023/06/06 12:47:01;;;;;;;;;;;;;;;;;;5026002;28;5181;-63
2023/06/06 12:49:27;;;;;;;;;;;;;;;;;;5025848;28;4619;-63
2023/06/06 12:51:52;;;;;;;;;;;;;;;;;;5025173;28;4652;-63
2023/06/06 12:54:17;;;;;;;;;;;;;;;;;;5057252;28;3155;-63
2023/06/06 12:56:42;;;;;;;;;;;;;;;;;;5026139;28;4439;-64
2023/06/06 12:59:08;;;;;;;;;;;;;;;;;;5026894;28;4668;-63
2023/06/06 13:01:34;;;;;;;;;;;;;;;;;;5025279;28;4716;-64
2023/06/06 13:03:59;;;;;;;;;;;;;;;;;;5024674;28;4685;-65
2023/06/06 13:06:24;;;;;;;;;;;;;;;;;;5042664;28;3220;-64
2023/06/06 13:08:50;;;;;;;;;;;;;;;;;;5024547;28;4905;-63
2023/06/06 13:11:15;;;;;;;;;;;;;;;;;;5023833;28;4488;-63
2023/06/06 13:13:40;;;;;;;;;;;;;;;;;;5022749;28;4468;-63
2023/06/06 13:16:06;;;;;;;;;;;;;;;;;;5022154;28;4517;-61
2023/06/06 13:18:32;;;;;;;;;;;;;;;;;;5025226;28;4911;-62
2023/06/06 13:20:59;;;;;;;;;;;;;;;;;;5027773;28;1148;-63
2023/06/06 13:23:26;;;;;;;;;;;;;;;;;;5027789;28;4704;-63
2023/06/06 13:25:55;;;;;;;;;;;;;;;;;;5026398;28;4825;-63
2023/06/06 13:28:20;;;;;;;;;;;;;;;;;;5024944;28;4678;-62
2023/06/06 13:30:45;;;;;;;;;;;;;;;;;;5027671;28;4480;-62
2023/06/06 13:33:11;;;;;;;;;;;;;;;;;;5025452;28;3556;-62
2023/06/06 13:35:36;;;;;;;;;;;;;;;;;;5024870;28;4887;-63
2023/06/06 13:38:01;;;;;;;;;;;;;;;;;;5024809;28;4486;-65
2023/06/06 13:40:26;;;;;;;;;;;;;;;;;;5023057;28;4512;-64
2023/06/06 13:42:54;;;;;;;;;;;;;;;;;;5027016;28;5279;-65
2023/06/06 13:45:20;;;;;;;;;;;;;;;;;;5028750;28;3295;-64
2023/06/06 13:47:45;;;;;;;;;;;;;;;;;;5028764;28;4982;-64
2023/06/06 13:50:10;;;;;;;;;;;;;;;;;;5028810;28;4879;-63
2023/06/06 13:52:37;;;;;;;;;;;;;;;;;;5024657;28;4709;-64
2023/06/06 13:55:04;;;;;;;;;;;;;;;;;;5028226;28;5105;-64
2023/06/06 13:57:31;;;;;;;;;;;;;;;;;;5027072;28;3389;-63
2023/06/06 13:59:56;;;;;;;;;;;;;;;;;;5026569;28;5151;-63
2023/06/06 14:02:22;;;;;;;;;;;;;;;;;;5028739;28;4986;-64
2023/06/06 14:04:47;;;;;;;;;;;;;;;;;;5027620;28;5046;-64
2023/06/06 14:07:14;;;;;;;;;;;;;;;;;;5024119;28;4615;-65
2023/06/06 14:09:39;;;;;;;;;;;;;;;;;;5029988;28;4644;-61
2023/06/06 14:12:05;;;;;;;;;;;;;;;;;;5027074;28;1934;-62
2023/06/06 14:14:30;;;;;;;;;;;;;;;;;;5030559;28;5248;-63
2023/06/06 14:16:56;;;;;;;;;;;;;;;;;;5032238;28;4487;-63
2023/06/06 14:19:37;;;;;;;;;;;;;;;;;;5022835;28;4702;-64
2023/06/06 14:22:24;;;;;;;;;;;;;;;;;;5025352;28;4528;-63
2023/06/06 14:24:50;;;;;;;;;;;;;;;;;;5022542;28;5403;-63
2023/06/06 14:27:15;;;;;;;;;;;;;;;;;;5056447;28;1123;-64
2023/06/06 14:29:41;;;;;;;;;;;;;;;;;;5033361;28;4965;-63
2023/06/06 14:32:11;;;;;;;;;;;;;;;;;;5022052;28;4470;-64
2023/06/06 14:34:46;;;;;;;;;;;;;;;;;;5028803;28;4951;-64
2023/06/06 14:37:11;;;;;;;;;;;;;;;;;;5027508;28;4501;-63
2023/06/06 14:39:37;;;;;;;;;;;;;;;;;;5029534;28;4905;-64
2023/06/06 14:42:02;;;;;;;;;;;;;;;;;;5027928;28;3234;-64
2023/06/06 14:44:30;;;;;;;;;;;;;;;;;;5044649;28;4497;-64
2023/06/06 14:46:58;;;;;;;;;;;;;;;;;;5029837;28;4538;-63
2023/06/06 14:49:25;;;;;;;;;;;;;;;;;;5029827;28;5189;-64
2023/06/06 14:51:50;;;;;;;;;;;;;;;;;;5027519;28;5270;-64
2023/06/06 14:54:15;;;;;;;;;;;;;;;;;;5025413;28;3367;-62
2023/06/06 14:56:41;;;;;;;;;;;;;;;;;;5023729;28;4827;-63
2023/06/06 14:59:06;;;;;;;;;;;;;;;;;;5025947;28;4828;-62
2023/06/06 15:01:32;;;;;;;;;;;;;;;;;;5023748;28;4521;-64
2023/06/06 15:03:58;;;;;;;;;;;;;;;;;;5026670;28;4697;-64
2023/06/06 15:06:24;;;;;;;;;;;;;;;;;;5032130;28;3214;-63
2023/06/06 15:08:49;;;;;;;;;;;;;;;;;;5025908;28;4587;-63
2023/06/06 15:11:14;;;;;;;;;;;;;;;;;;5024348;28;5073;-63
2023/06/06 15:13:40;;;;;;;;;;;;;;;;;;5021685;28;4568;-63
2023/06/06 15:16:08;;;;;;;;;;;;;;;;;;5026554;28;5185;-63
2023/06/06 15:18:34;;;;;;;;;;;;;;;;;;5019888;28;4678;-62
2023/06/06 15:20:59;;;;;;;;;;;;;;;;;;5023798;28;3520;-62
2023/06/06 15:23:24;;;;;;;;;;;;;;;;;;5026359;28;4638;-63
2023/06/06 15:25:50;;;;;;;;;;;;;;;;;;5028682;28;4543;-64
2023/06/06 15:28:15;;;;;;;;;;;;;;;;;;5026031;28;4606;-63
2023/06/06 15:30:40;;;;;;;;;;;;;;;;;;5025992;28;4674;-62
2023/06/06 15:33:06;;;;;;;;;;;;;;;;;;5027783;28;3578;-63
2023/06/06 15:35:31;;;;;;;;;;;;;;;;;;5024886;28;5034;-64
2023/06/06 15:37:56;;;;;;;;;;;;;;;;;;5027002;28;4799;-64
2023/06/06 15:40:22;;;;;;;;;;;;;;;;;;5026172;28;5113;-63
2023/06/06 15:42:47;;;;;;;;;;;;;;;;;;5027867;28;4460;-62
2023/06/06 15:45:12;;;;;;;;;;;;;;;;;;5025542;28;1333;-63
2023/06/06 15:47:37;;;;;;;;;;;;;;;;;;5028259;28;4652;-63
2023/06/06 15:50:03;;;;;;;;;;;;;;;;;;5029016;28;4824;-63
2023/06/06 15:52:28;;;;;;;;;;;;;;;;;;5028947;28;4513;-63
2023/06/06 15:54:53;;;;;;;;;;;;;;;;;;5025432;28;5210;-63
2023/06/06 15:57:19;;;;;;;;;;;;;;;;;;5027285;28;3027;-63
2023/06/06 15:59:44;;;;;;;;;;;;;;;;;;5027015;28;4598;-63
2023/06/06 16:02:10;;;;;;;;;;;;;;;;;;5028282;28;4464;-63
2023/06/06 16:04:35;;;;;;;;;;;;;;;;;;5026973;28;4504;-62
2023/06/06 16:07:01;;;;;;;;;;;;;;;;;;5026507;28;4484;-63
2023/06/06 16:09:26;;;;;;;;;;;;;;;;;;5025481;28;3145;-64
2023/06/06 16:11:53;;;;;;;;;;;;;;;;;;5023756;28;4615;-63
2023/06/06 16:14:18;;;;;;;;;;;;;;;;;;5025590;28;4939;-63
2023/06/06 16:16:44;;;;;;;;;;;;;;;;;;5024100;28;4664;-64
2023/06/06 16:19:09;;;;;;;;;;;;;;;;;;5024912;28;4772;-63
2023/06/06 16:21:35;;;;;;;;;;;;;;;;;;5027069;28;4501;-62
2023/06/06 16:24:02;;;;;;;;;;;;;;;;;;5031668;28;3435;-62
2023/06/06 16:26:27;;;;;;;;;;;;;;;;;;5025612;28;4905;-62
2023/06/06 16:28:52;;;;;;;;;;;;;;;;;;5026521;28;5061;-63
2023/06/06 16:31:18;;;;;;;;;;;;;;;;;;5026290;28;4755;-63
2023/06/06 16:33:43;;;;;;;;;;;;;;;;;;5026916;28;5028;-63
2023/06/06 16:36:08;;;;;;;;;;;;;;;;;;5027179;28;3432;-64
2023/06/06 16:38:33;;;;;;;;;;;;;;;;;;5024576;28;4894;-63
2023/06/06 16:41:01;;;;;;;;;;;;;;;;;;5024528;28;4659;-63
2023/06/06 16:43:27;;;;;;;;;;;;;;;;;;5024130;28;4962;-63
2023/06/06 16:45:52;;;;;;;;;;;;;;;;;;5039189;28;4570;-63
2023/06/06 16:48:17;;;;;;;;;;;;;;;;;;5032730;28;3109;-63
2023/06/06 16:50:43;;;;;;;;;;;;;;;;;;5028205;28;4990;-64
2023/06/06 16:53:08;;;;;;;;;;;;;;;;;;5024400;28;4697;-64
2023/06/06 16:55:33;;;;;;;;;;;;;;;;;;5027313;28;4505;-63
2023/06/06 16:57:58;;;;;;;;;;;;;;;;;;5029201;28;4826;-63
2023/06/06 17:00:24;;;;;;;;;;;;;;;;;;5028391;28;1733;-63